sensor_id;sensor_type;location;lat;lon;timestamp;P1;durP1;ratioP1;P2;durP2;ratioP2
76119;SDS011;64852;48.092;-1.640;2023-10-31T00:01:20;32.77;;;30.07;;
76119;SDS011;64852;48.092;-1.640;2023-10-31T00:03:46;33.67;;;30.98;;
76119;SDS011;64852;48.092;-1.640;2023-10-31T00:06:11;36.60;;;33.50;;
76119;SDS011;64852;48.092;-1.640;2023-10-31T00:08:37;34.22;;;31.42;;
76119;SDS011;64852;48.092;-1.640;2023-10-31T00:11:02;25.27;;;22.97;;
76119;SDS011;64852;48.092;-1.640;2023-10-31T00:13:28;26.40;;;24.00;;
76119;SDS011;64852;48.092;-1.640;2023-10-31T00:15:54;25.40;;;23.10;;
76119;SDS011;64852;48.092;-1.640;2023-10-31T00:18:19;24.77;;;22.53;;
76119;SDS011;64852;48.092;-1.640;2023-10-31T00:20:45;24.85;;;22.55;;
76119;SDS011;64852;48.092;-1.640;2023-10-31T00:23:11;23.20;;;21.20;;
76119;SDS011;64852;48.092;-1.640;2023-10-31T00:25:37;23.83;;;21.73;;
76119;SDS011;64852;48.092;-1.640;2023-10-31T00:28:03;24.00;;;21.80;;
76119;SDS011;64852;48.092;-1.640;2023-10-31T00:30:28;24.70;;;22.50;;
76119;SDS011;64852;48.092;-1.640;2023-10-31T00:32:54;24.20;;;22.10;;
76119;SDS011;64852;48.092;-1.640;2023-10-31T00:35:19;27.40;;;24.80;;
76119;SDS011;64852;48.092;-1.640;2023-10-31T00:37:45;25.80;;;23.50;;
76119;SDS011;64852;48.092;-1.640;2023-10-31T00:40:11;25.53;;;23.43;;
76119;SDS011;64852;48.092;-1.640;2023-10-31T00:42:39;26.00;;;23.60;;
76119;SDS011;64852;48.092;-1.640;2023-10-31T00:45:07;25.55;;;23.25;;
76119;SDS011;64852;48.092;-1.640;2023-10-31T00:47:33;26.30;;;23.90;;
76119;SDS011;64852;48.092;-1.640;2023-10-31T00:49:59;24.30;;;22.17;;
76119;SDS011;64852;48.092;-1.640;2023-10-31T00:52:25;26.77;;;24.37;;
76119;SDS011;64852;48.092;-1.640;2023-10-31T00:54:50;25.30;;;23.10;;
76119;SDS011;64852;48.092;-1.640;2023-10-31T00:57:16;25.80;;;23.43;;
76119;SDS011;64852;48.092;-1.640;2023-10-31T00:59:41;25.90;;;23.13;;
76119;SDS011;64852;48.092;-1.640;2023-10-31T01:02:08;23.90;;;21.70;;
76119;SDS011;64852;48.092;-1.640;2023-10-31T01:04:33;23.40;;;21.30;;
76119;SDS011;64852;48.092;-1.640;2023-10-31T01:07:01;25.30;;;23.00;;
76119;SDS011;64852;48.092;-1.640;2023-10-31T01:09:26;24.27;;;22.07;;
76119;SDS011;64852;48.092;-1.640;2023-10-31T01:11:52;24.48;;;22.27;;
76119;SDS011;64852;48.092;-1.640;2023-10-31T01:16:44;26.90;;;23.35;;
76119;SDS011;64852;48.092;-1.640;2023-10-31T01:19:10;24.80;;;22.70;;
76119;SDS011;64852;48.092;-1.640;2023-10-31T01:21:35;24.17;;;22.03;;
76119;SDS011;64852;48.092;-1.640;2023-10-31T01:24:01;23.43;;;21.43;;
76119;SDS011;64852;48.092;-1.640;2023-10-31T01:26:27;23.10;;;21.10;;
76119;SDS011;64852;48.092;-1.640;2023-10-31T01:28:52;25.40;;;22.87;;
76119;SDS011;64852;48.092;-1.640;2023-10-31T01:31:18;24.50;;;22.40;;
76119;SDS011;64852;48.092;-1.640;2023-10-31T01:33:45;23.90;;;21.80;;
76119;SDS011;64852;48.092;-1.640;2023-10-31T01:36:10;28.15;;;25.75;;
76119;SDS011;64852;48.092;-1.640;2023-10-31T01:38:37;29.13;;;26.63;;
76119;SDS011;64852;48.092;-1.640;2023-10-31T01:41:03;28.50;;;26.00;;
76119;SDS011;64852;48.092;-1.640;2023-10-31T01:43:30;37.40;;;34.45;;
76119;SDS011;64852;48.092;-1.640;2023-10-31T01:45:59;58.85;;;37.95;;
76119;SDS011;64852;48.092;-1.640;2023-10-31T01:48:25;32.70;;;30.20;;
76119;SDS011;64852;48.092;-1.640;2023-10-31T01:50:54;33.28;;;30.70;;
76119;SDS011;64852;48.092;-1.640;2023-10-31T01:53:19;34.75;;;32.05;;
76119;SDS011;64852;48.092;-1.640;2023-10-31T01:55:45;34.58;;;31.92;;
76119;SDS011;64852;48.092;-1.640;2023-10-31T01:58:11;24.55;;;22.45;;
76119;SDS011;64852;48.092;-1.640;2023-10-31T02:00:39;24.65;;;22.35;;
76119;SDS011;64852;48.092;-1.640;2023-10-31T02:03:08;25.65;;;23.27;;
76119;SDS011;64852;48.092;-1.640;2023-10-31T02:05:34;23.52;;;21.42;;
76119;SDS011;64852;48.092;-1.640;2023-10-31T02:08:01;26.20;;;23.45;;
76119;SDS011;64852;48.092;-1.640;2023-10-31T02:10:27;23.92;;;21.83;;
76119;SDS011;64852;48.092;-1.640;2023-10-31T02:12:52;24.03;;;21.93;;
76119;SDS011;64852;48.092;-1.640;2023-10-31T02:15:18;23.70;;;21.60;;
76119;SDS011;64852;48.092;-1.640;2023-10-31T02:17:43;24.50;;;22.40;;
76119;SDS011;64852;48.092;-1.640;2023-10-31T02:20:09;24.13;;;22.03;;
76119;SDS011;64852;48.092;-1.640;2023-10-31T02:22:35;24.02;;;21.92;;
76119;SDS011;64852;48.092;-1.640;2023-10-31T02:25:01;24.40;;;22.30;;
76119;SDS011;64852;48.092;-1.640;2023-10-31T02:27:26;23.93;;;21.83;;
76119;SDS011;64852;48.092;-1.640;2023-10-31T02:29:52;23.80;;;21.70;;
76119;SDS011;64852;48.092;-1.640;2023-10-31T02:32:17;23.80;;;21.70;;
76119;SDS011;64852;48.092;-1.640;2023-10-31T02:34:47;23.67;;;21.57;;
76119;SDS011;64852;48.092;-1.640;2023-10-31T02:37:14;24.20;;;22.00;;
76119;SDS011;64852;48.092;-1.640;2023-10-31T02:39:40;23.77;;;21.67;;
76119;SDS011;64852;48.092;-1.640;2023-10-31T02:42:05;23.90;;;21.80;;
76119;SDS011;64852;48.092;-1.640;2023-10-31T02:44:31;23.30;;;21.30;;
76119;SDS011;64852;48.092;-1.640;2023-10-31T02:46:56;23.50;;;21.40;;
76119;SDS011;64852;48.092;-1.640;2023-10-31T02:49:22;24.08;;;21.98;;
76119;SDS011;64852;48.092;-1.640;2023-10-31T02:51:48;24.90;;;22.70;;
76119;SDS011;64852;48.092;-1.640;2023-10-31T02:54:13;25.03;;;22.50;;
76119;SDS011;64852;48.092;-1.640;2023-10-31T02:56:39;23.83;;;21.83;;
76119;SDS011;64852;48.092;-1.640;2023-10-31T02:59:05;24.17;;;22.07;;
76119;SDS011;64852;48.092;-1.640;2023-10-31T03:01:30;24.17;;;22.07;;
76119;SDS011;64852;48.092;-1.640;2023-10-31T03:03:56;25.10;;;22.70;;
76119;SDS011;64852;48.092;-1.640;2023-10-31T03:06:21;24.53;;;22.43;;
76119;SDS011;64852;48.092;-1.640;2023-10-31T03:08:47;24.70;;;22.43;;
76119;SDS011;64852;48.092;-1.640;2023-10-31T03:11:22;25.40;;;23.10;;
76119;SDS011;64852;48.092;-1.640;2023-10-31T03:13:49;25.23;;;22.77;;
76119;SDS011;64852;48.092;-1.640;2023-10-31T03:16:15;25.05;;;22.85;;
76119;SDS011;64852;48.092;-1.640;2023-10-31T03:18:41;27.25;;;24.50;;
76119;SDS011;64852;48.092;-1.640;2023-10-31T03:21:07;24.45;;;22.35;;
76119;SDS011;64852;48.092;-1.640;2023-10-31T03:23:32;23.92;;;21.83;;
76119;SDS011;64852;48.092;-1.640;2023-10-31T03:25:58;24.35;;;22.25;;
76119;SDS011;64852;48.092;-1.640;2023-10-31T03:28:24;33.40;;;30.80;;
76119;SDS011;64852;48.092;-1.640;2023-10-31T03:30:50;33.80;;;31.20;;
76119;SDS011;64852;48.092;-1.640;2023-10-31T03:33:16;33.30;;;30.77;;
76119;SDS011;64852;48.092;-1.640;2023-10-31T03:35:42;34.17;;;31.58;;
76119;SDS011;64852;48.092;-1.640;2023-10-31T03:38:08;36.45;;;33.65;;
76119;SDS011;64852;48.092;-1.640;2023-10-31T03:40:34;33.65;;;31.15;;
76119;SDS011;64852;48.092;-1.640;2023-10-31T03:42:59;26.38;;;22.13;;
76119;SDS011;64852;48.092;-1.640;2023-10-31T03:45:25;24.07;;;21.97;;
76119;SDS011;64852;48.092;-1.640;2023-10-31T03:47:51;22.70;;;20.75;;
76119;SDS011;64852;48.092;-1.640;2023-10-31T03:50:16;23.53;;;21.53;;
76119;SDS011;64852;48.092;-1.640;2023-10-31T03:52:42;23.53;;;21.53;;
76119;SDS011;64852;48.092;-1.640;2023-10-31T03:55:08;23.53;;;21.53;;
76119;SDS011;64852;48.092;-1.640;2023-10-31T03:57:33;22.85;;;20.92;;
76119;SDS011;64852;48.092;-1.640;2023-10-31T03:59:59;23.70;;;21.63;;
76119;SDS011;64852;48.092;-1.640;2023-10-31T04:02:25;23.35;;;21.27;;
76119;SDS011;64852;48.092;-1.640;2023-10-31T04:04:51;23.27;;;21.27;;
76119;SDS011;64852;48.092;-1.640;2023-10-31T04:07:16;23.53;;;21.53;;
76119;SDS011;64852;48.092;-1.640;2023-10-31T04:09:42;22.67;;;20.67;;
76119;SDS011;64852;48.092;-1.640;2023-10-31T04:12:08;23.50;;;21.50;;
76119;SDS011;64852;48.092;-1.640;2023-10-31T04:14:34;23.38;;;21.38;;
76119;SDS011;64852;48.092;-1.640;2023-10-31T04:16:59;25.03;;;22.80;;
76119;SDS011;64852;48.092;-1.640;2023-10-31T04:19:25;24.40;;;22.30;;
76119;SDS011;64852;48.092;-1.640;2023-10-31T04:21:52;22.45;;;20.55;;
76119;SDS011;64852;48.092;-1.640;2023-10-31T04:24:18;22.98;;;21.08;;
76119;SDS011;64852;48.092;-1.640;2023-10-31T04:26:43;22.90;;;21.00;;
76119;SDS011;64852;48.092;-1.640;2023-10-31T04:29:09;23.30;;;21.30;;
76119;SDS011;64852;48.092;-1.640;2023-10-31T04:31:34;22.67;;;20.77;;
76119;SDS011;64852;48.092;-1.640;2023-10-31T04:34:00;24.87;;;22.57;;
76119;SDS011;64852;48.092;-1.640;2023-10-31T04:36:25;23.27;;;21.27;;
76119;SDS011;64852;48.092;-1.640;2023-10-31T04:38:51;21.70;;;19.80;;
76119;SDS011;64852;48.092;-1.640;2023-10-31T04:41:17;22.25;;;20.35;;
76119;SDS011;64852;48.092;-1.640;2023-10-31T04:43:42;22.10;;;20.20;;
76119;SDS011;64852;48.092;-1.640;2023-10-31T04:46:08;25.00;;;22.50;;
76119;SDS011;64852;48.092;-1.640;2023-10-31T04:48:34;23.60;;;21.50;;
76119;SDS011;64852;48.092;-1.640;2023-10-31T04:50:59;22.50;;;20.60;;
76119;SDS011;64852;48.092;-1.640;2023-10-31T04:53:25;22.60;;;20.70;;
76119;SDS011;64852;48.092;-1.640;2023-10-31T04:55:50;22.33;;;20.43;;
76119;SDS011;64852;48.092;-1.640;2023-10-31T04:58:17;22.55;;;20.65;;
76119;SDS011;64852;48.092;-1.640;2023-10-31T05:00:43;30.50;;;28.20;;
76119;SDS011;64852;48.092;-1.640;2023-10-31T05:05:35;30.35;;;28.05;;
76119;SDS011;64852;48.092;-1.640;2023-10-31T05:08:00;31.17;;;28.77;;
76119;SDS011;64852;48.092;-1.640;2023-10-31T05:10:26;30.73;;;28.43;;
76119;SDS011;64852;48.092;-1.640;2023-10-31T05:12:51;30.20;;;28.00;;
76119;SDS011;64852;48.092;-1.640;2023-10-31T05:15:17;34.28;;;31.50;;
76119;SDS011;64852;48.092;-1.640;2023-10-31T05:17:43;25.23;;;23.23;;
76119;SDS011;64852;48.092;-1.640;2023-10-31T05:20:09;25.00;;;23.00;;
76119;SDS011;64852;48.092;-1.640;2023-10-31T05:22:35;23.80;;;21.70;;
76119;SDS011;64852;48.092;-1.640;2023-10-31T05:25:01;23.92;;;21.92;;
76119;SDS011;64852;48.092;-1.640;2023-10-31T05:27:27;22.60;;;20.75;;
76119;SDS011;64852;48.092;-1.640;2023-10-31T05:29:53;23.10;;;21.20;;
76119;SDS011;64852;48.092;-1.640;2023-10-31T05:32:19;23.48;;;21.58;;
76119;SDS011;64852;48.092;-1.640;2023-10-31T05:34:45;23.40;;;21.50;;
76119;SDS011;64852;48.092;-1.640;2023-10-31T05:37:10;23.08;;;21.17;;
76119;SDS011;64852;48.092;-1.640;2023-10-31T05:39:36;23.07;;;21.17;;
76119;SDS011;64852;48.092;-1.640;2023-10-31T05:42:02;23.45;;;21.45;;
76119;SDS011;64852;48.092;-1.640;2023-10-31T05:44:28;22.70;;;20.90;;
76119;SDS011;64852;48.092;-1.640;2023-10-31T05:46:54;23.05;;;21.15;;
76119;SDS011;64852;48.092;-1.640;2023-10-31T05:49:19;22.65;;;20.75;;
76119;SDS011;64852;48.092;-1.640;2023-10-31T05:51:51;23.15;;;21.13;;
76119;SDS011;64852;48.092;-1.640;2023-10-31T05:54:18;22.38;;;20.48;;
76119;SDS011;64852;48.092;-1.640;2023-10-31T05:56:43;28.10;;;25.90;;
76119;SDS011;64852;48.092;-1.640;2023-10-31T05:59:10;27.23;;;25.08;;
76119;SDS011;64852;48.092;-1.640;2023-10-31T06:01:36;28.42;;;26.23;;
76119;SDS011;64852;48.092;-1.640;2023-10-31T06:04:02;28.77;;;26.48;;
76119;SDS011;64852;48.092;-1.640;2023-10-31T06:06:29;29.20;;;27.00;;
76119;SDS011;64852;48.092;-1.640;2023-10-31T06:08:57;29.05;;;26.85;;
76119;SDS011;64852;48.092;-1.640;2023-10-31T06:11:23;31.65;;;29.35;;
76119;SDS011;64852;48.092;-1.640;2023-10-31T06:13:48;24.15;;;22.02;;
76119;SDS011;64852;48.092;-1.640;2023-10-31T06:16:14;23.70;;;21.80;;
76119;SDS011;64852;48.092;-1.640;2023-10-31T06:18:39;22.40;;;20.60;;
76119;SDS011;64852;48.092;-1.640;2023-10-31T06:21:05;22.90;;;21.00;;
76119;SDS011;64852;48.092;-1.640;2023-10-31T06:23:33;23.52;;;21.63;;
76119;SDS011;64852;48.092;-1.640;2023-10-31T06:26:00;22.63;;;20.83;;
76119;SDS011;64852;48.092;-1.640;2023-10-31T06:28:26;23.40;;;21.50;;
76119;SDS011;64852;48.092;-1.640;2023-10-31T06:30:51;22.73;;;20.93;;
76119;SDS011;64852;48.092;-1.640;2023-10-31T06:33:17;23.67;;;21.77;;
76119;SDS011;64852;48.092;-1.640;2023-10-31T06:35:42;22.47;;;20.67;;
76119;SDS011;64852;48.092;-1.640;2023-10-31T06:38:08;23.58;;;21.67;;
76119;SDS011;64852;48.092;-1.640;2023-10-31T06:40:34;22.63;;;20.83;;
76119;SDS011;64852;48.092;-1.640;2023-10-31T06:43:00;23.07;;;21.17;;
76119;SDS011;64852;48.092;-1.640;2023-10-31T06:45:26;22.83;;;21.02;;
76119;SDS011;64852;48.092;-1.640;2023-10-31T06:47:52;24.03;;;22.13;;
76119;SDS011;64852;48.092;-1.640;2023-10-31T06:50:18;22.92;;;21.13;;
76119;SDS011;64852;48.092;-1.640;2023-10-31T06:52:44;25.33;;;23.42;;
76119;SDS011;64852;48.092;-1.640;2023-10-31T06:55:09;21.90;;;20.10;;
76119;SDS011;64852;48.092;-1.640;2023-10-31T06:57:35;26.77;;;24.67;;
76119;SDS011;64852;48.092;-1.640;2023-10-31T07:00:00;28.08;;;25.98;;
76119;SDS011;64852;48.092;-1.640;2023-10-31T07:02:26;28.47;;;26.37;;
76119;SDS011;64852;48.092;-1.640;2023-10-31T07:04:52;28.87;;;26.67;;
76119;SDS011;64852;48.092;-1.640;2023-10-31T07:07:18;27.15;;;25.05;;
76119;SDS011;64852;48.092;-1.640;2023-10-31T07:09:44;27.55;;;25.45;;
76119;SDS011;64852;48.092;-1.640;2023-10-31T07:12:10;27.13;;;25.10;;
76119;SDS011;64852;48.092;-1.640;2023-10-31T07:14:35;25.02;;;23.13;;
76119;SDS011;64852;48.092;-1.640;2023-10-31T07:17:01;22.20;;;20.30;;
76119;SDS011;64852;48.092;-1.640;2023-10-31T07:19:27;28.48;;;26.38;;
76119;SDS011;64852;48.092;-1.640;2023-10-31T07:21:53;23.23;;;21.33;;
76119;SDS011;64852;48.092;-1.640;2023-10-31T07:24:19;22.75;;;20.92;;
76119;SDS011;64852;48.092;-1.640;2023-10-31T07:26:45;22.20;;;20.40;;
76119;SDS011;64852;48.092;-1.640;2023-10-31T07:29:10;22.80;;;20.90;;
76119;SDS011;64852;48.092;-1.640;2023-10-31T07:31:37;22.50;;;20.70;;
76119;SDS011;64852;48.092;-1.640;2023-10-31T07:34:04;23.60;;;21.60;;
76119;SDS011;64852;48.092;-1.640;2023-10-31T07:38:57;22.25;;;20.45;;
76119;SDS011;64852;48.092;-1.640;2023-10-31T07:41:23;21.92;;;20.13;;
76119;SDS011;64852;48.092;-1.640;2023-10-31T07:43:49;21.92;;;20.13;;
76119;SDS011;64852;48.092;-1.640;2023-10-31T07:46:15;22.27;;;20.37;;
76119;SDS011;64852;48.092;-1.640;2023-10-31T07:48:40;25.02;;;23.02;;
76119;SDS011;64852;48.092;-1.640;2023-10-31T07:51:06;25.00;;;22.85;;
76119;SDS011;64852;48.092;-1.640;2023-10-31T07:53:32;23.50;;;21.60;;
76119;SDS011;64852;48.092;-1.640;2023-10-31T07:55:57;21.43;;;19.70;;
76119;SDS011;64852;48.092;-1.640;2023-10-31T07:58:23;21.73;;;19.93;;
76119;SDS011;64852;48.092;-1.640;2023-10-31T08:00:48;25.87;;;23.87;;
76119;SDS011;64852;48.092;-1.640;2023-10-31T08:03:14;25.70;;;23.70;;
76119;SDS011;64852;48.092;-1.640;2023-10-31T08:05:40;24.13;;;22.27;;
76119;SDS011;64852;48.092;-1.640;2023-10-31T08:08:05;26.73;;;24.63;;
76119;SDS011;64852;48.092;-1.640;2023-10-31T08:10:31;25.13;;;23.23;;
76119;SDS011;64852;48.092;-1.640;2023-10-31T08:12:58;21.90;;;20.20;;
76119;SDS011;64852;48.092;-1.640;2023-10-31T08:15:24;21.93;;;20.23;;
76119;SDS011;64852;48.092;-1.640;2023-10-31T08:17:49;28.03;;;25.97;;
76119;SDS011;64852;48.092;-1.640;2023-10-31T08:20:15;20.20;;;18.60;;
76119;SDS011;64852;48.092;-1.640;2023-10-31T08:22:41;20.20;;;18.60;;
76119;SDS011;64852;48.092;-1.640;2023-10-31T08:27:33;20.02;;;18.42;;
76119;SDS011;64852;48.092;-1.640;2023-10-31T08:29:59;21.25;;;19.65;;
76119;SDS011;64852;48.092;-1.640;2023-10-31T08:32:25;20.60;;;19.10;;
76119;SDS011;64852;48.092;-1.640;2023-10-31T08:34:50;19.43;;;17.93;;
76119;SDS011;64852;48.092;-1.640;2023-10-31T08:37:16;20.20;;;18.60;;
76119;SDS011;64852;48.092;-1.640;2023-10-31T08:39:42;20.80;;;19.13;;
76119;SDS011;64852;48.092;-1.640;2023-10-31T08:42:07;21.98;;;20.15;;
76119;SDS011;64852;48.092;-1.640;2023-10-31T08:44:34;22.35;;;20.35;;
76119;SDS011;64852;48.092;-1.640;2023-10-31T08:47:02;22.75;;;20.75;;
76119;SDS011;64852;48.092;-1.640;2023-10-31T08:49:28;22.50;;;20.50;;
76119;SDS011;64852;48.092;-1.640;2023-10-31T08:51:54;22.55;;;20.15;;
76119;SDS011;64852;48.092;-1.640;2023-10-31T08:54:20;20.93;;;19.13;;
76119;SDS011;64852;48.092;-1.640;2023-10-31T08:56:45;22.30;;;20.40;;
76119;SDS011;64852;48.092;-1.640;2023-10-31T08:59:11;22.10;;;20.20;;
76119;SDS011;64852;48.092;-1.640;2023-10-31T09:01:37;24.05;;;21.73;;
76119;SDS011;64852;48.092;-1.640;2023-10-31T09:06:28;20.75;;;19.05;;
76119;SDS011;64852;48.092;-1.640;2023-10-31T09:08:54;24.40;;;22.20;;
76119;SDS011;64852;48.092;-1.640;2023-10-31T09:11:20;25.07;;;22.87;;
76119;SDS011;64852;48.092;-1.640;2023-10-31T09:13:45;24.37;;;22.17;;
76119;SDS011;64852;48.092;-1.640;2023-10-31T09:16:11;25.90;;;23.63;;
76119;SDS011;64852;48.092;-1.640;2023-10-31T09:18:38;26.25;;;24.00;;
76119;SDS011;64852;48.092;-1.640;2023-10-31T09:21:04;27.13;;;24.40;;
76119;SDS011;64852;48.092;-1.640;2023-10-31T09:23:30;23.90;;;21.80;;
76119;SDS011;64852;48.092;-1.640;2023-10-31T09:28:21;23.08;;;20.98;;
76119;SDS011;64852;48.092;-1.640;2023-10-31T09:30:47;23.37;;;21.27;;
76119;SDS011;64852;48.092;-1.640;2023-10-31T09:33:12;23.13;;;21.03;;
76119;SDS011;64852;48.092;-1.640;2023-10-31T09:35:38;24.73;;;22.42;;
76119;SDS011;64852;48.092;-1.640;2023-10-31T09:38:04;23.40;;;21.30;;
76119;SDS011;64852;48.092;-1.640;2023-10-31T09:40:29;23.13;;;21.13;;
76119;SDS011;64852;48.092;-1.640;2023-10-31T09:42:55;22.90;;;20.90;;
76119;SDS011;64852;48.092;-1.640;2023-10-31T09:45:21;23.85;;;21.75;;
76119;SDS011;64852;48.092;-1.640;2023-10-31T09:47:47;23.33;;;21.27;;
76119;SDS011;64852;48.092;-1.640;2023-10-31T09:50:12;24.80;;;22.60;;
76119;SDS011;64852;48.092;-1.640;2023-10-31T09:52:38;24.93;;;22.67;;
76119;SDS011;64852;48.092;-1.640;2023-10-31T09:55:04;24.42;;;22.23;;
76119;SDS011;64852;48.092;-1.640;2023-10-31T09:57:31;24.02;;;21.83;;
76119;SDS011;64852;48.092;-1.640;2023-10-31T09:59:57;26.42;;;24.02;;
76119;SDS011;64852;48.092;-1.640;2023-10-31T10:02:23;24.15;;;21.95;;
76119;SDS011;64852;48.092;-1.640;2023-10-31T10:04:49;24.43;;;22.23;;
76119;SDS011;64852;48.092;-1.640;2023-10-31T10:07:15;24.42;;;22.23;;
76119;SDS011;64852;48.092;-1.640;2023-10-31T10:12:08;26.25;;;23.83;;
76119;SDS011;64852;48.092;-1.640;2023-10-31T10:14:40;24.48;;;22.27;;
76119;SDS011;64852;48.092;-1.640;2023-10-31T10:17:15;30.52;;;26.17;;
76119;SDS011;64852;48.092;-1.640;2023-10-31T10:19:45;25.33;;;22.92;;
76119;SDS011;64852;48.092;-1.640;2023-10-31T10:22:11;25.55;;;23.15;;
76119;SDS011;64852;48.092;-1.640;2023-10-31T10:24:38;27.23;;;24.73;;
76119;SDS011;64852;48.092;-1.640;2023-10-31T10:27:06;27.52;;;25.00;;
76119;SDS011;64852;48.092;-1.640;2023-10-31T10:29:33;31.38;;;28.58;;
76119;SDS011;64852;48.092;-1.640;2023-10-31T10:31:59;30.70;;;28.00;;
76119;SDS011;64852;48.092;-1.640;2023-10-31T10:34:24;28.40;;;25.80;;
76119;SDS011;64852;48.092;-1.640;2023-10-31T10:36:50;29.60;;;26.90;;
76119;SDS011;64852;48.092;-1.640;2023-10-31T10:39:18;33.30;;;30.40;;
76119;SDS011;64852;48.092;-1.640;2023-10-31T10:41:46;31.20;;;28.33;;
76119;SDS011;64852;48.092;-1.640;2023-10-31T10:44:32;28.25;;;25.40;;
76119;SDS011;64852;48.092;-1.640;2023-10-31T10:47:03;26.98;;;24.48;;
76119;SDS011;64852;48.092;-1.640;2023-10-31T10:49:32;28.05;;;25.33;;
76119;SDS011;64852;48.092;-1.640;2023-10-31T10:52:01;26.17;;;23.77;;
76119;SDS011;64852;48.092;-1.640;2023-10-31T10:54:37;24.83;;;22.52;;
76119;SDS011;64852;48.092;-1.640;2023-10-31T10:57:24;25.70;;;23.40;;
76119;SDS011;64852;48.092;-1.640;2023-10-31T11:00:04;26.55;;;24.05;;
76119;SDS011;64852;48.092;-1.640;2023-10-31T11:02:33;27.80;;;25.10;;
76119;SDS011;64852;48.092;-1.640;2023-10-31T11:05:02;27.15;;;24.55;;
76119;SDS011;64852;48.092;-1.640;2023-10-31T11:07:32;26.42;;;24.00;;
76119;SDS011;64852;48.092;-1.640;2023-10-31T11:09:59;28.77;;;26.08;;
76119;SDS011;64852;48.092;-1.640;2023-10-31T11:12:29;29.40;;;26.70;;
76119;SDS011;64852;48.092;-1.640;2023-10-31T11:14:56;29.13;;;26.33;;
76119;SDS011;64852;48.092;-1.640;2023-10-31T11:17:30;33.10;;;25.33;;
76119;SDS011;64852;48.092;-1.640;2023-10-31T11:19:59;30.48;;;27.35;;
76119;SDS011;64852;48.092;-1.640;2023-10-31T11:22:25;28.80;;;26.20;;
76119;SDS011;64852;48.092;-1.640;2023-10-31T11:25:01;28.90;;;26.20;;
76119;SDS011;64852;48.092;-1.640;2023-10-31T11:27:27;27.15;;;24.75;;
76119;SDS011;64852;48.092;-1.640;2023-10-31T11:29:54;28.30;;;25.80;;
76119;SDS011;64852;48.092;-1.640;2023-10-31T11:32:20;30.92;;;28.30;;
76119;SDS011;64852;48.092;-1.640;2023-10-31T11:34:47;28.08;;;25.40;;
76119;SDS011;64852;48.092;-1.640;2023-10-31T11:37:25;26.13;;;23.73;;
76119;SDS011;64852;48.092;-1.640;2023-10-31T11:42:42;28.38;;;25.88;;
76119;SDS011;64852;48.092;-1.640;2023-10-31T11:45:09;28.45;;;25.85;;
76119;SDS011;64852;48.092;-1.640;2023-10-31T11:50:13;26.70;;;24.30;;
76119;SDS011;64852;48.092;-1.640;2023-10-31T11:52:39;28.90;;;26.20;;
76119;SDS011;64852;48.092;-1.640;2023-10-31T11:55:07;28.90;;;26.40;;
76119;SDS011;64852;48.092;-1.640;2023-10-31T11:57:40;29.52;;;27.13;;
76119;SDS011;64852;48.092;-1.640;2023-10-31T12:00:06;31.15;;;28.52;;
76119;SDS011;64852;48.092;-1.640;2023-10-31T12:02:56;34.50;;;31.70;;
76119;SDS011;64852;48.092;-1.640;2023-10-31T12:05:25;30.77;;;28.08;;
76119;SDS011;64852;48.092;-1.640;2023-10-31T12:07:51;27.65;;;25.15;;
76119;SDS011;64852;48.092;-1.640;2023-10-31T12:10:27;26.63;;;24.13;;
76119;SDS011;64852;48.092;-1.640;2023-10-31T12:12:55;28.50;;;25.90;;
76119;SDS011;64852;48.092;-1.640;2023-10-31T12:15:23;28.60;;;25.75;;
76119;SDS011;64852;48.092;-1.640;2023-10-31T12:17:49;29.33;;;26.73;;
76119;SDS011;64852;48.092;-1.640;2023-10-31T12:20:15;27.48;;;25.08;;
76119;SDS011;64852;48.092;-1.640;2023-10-31T12:22:41;27.77;;;25.25;;
76119;SDS011;64852;48.092;-1.640;2023-10-31T12:25:08;27.92;;;25.42;;
76119;SDS011;64852;48.092;-1.640;2023-10-31T12:27:48;29.27;;;26.58;;
76119;SDS011;64852;48.092;-1.640;2023-10-31T12:30:18;29.08;;;26.48;;
76119;SDS011;64852;48.092;-1.640;2023-10-31T12:32:52;27.48;;;25.08;;
76119;SDS011;64852;48.092;-1.640;2023-10-31T12:35:25;28.15;;;25.75;;
76119;SDS011;64852;48.092;-1.640;2023-10-31T12:37:51;29.27;;;26.67;;
76119;SDS011;64852;48.092;-1.640;2023-10-31T12:40:19;28.55;;;26.15;;
76119;SDS011;64852;48.092;-1.640;2023-10-31T12:42:46;26.92;;;24.73;;
76119;SDS011;64852;48.092;-1.640;2023-10-31T12:45:13;27.85;;;25.35;;
76119;SDS011;64852;48.092;-1.640;2023-10-31T12:50:16;26.88;;;24.58;;
76119;SDS011;64852;48.092;-1.640;2023-10-31T12:52:51;31.83;;;29.23;;
76119;SDS011;64852;48.092;-1.640;2023-10-31T12:55:18;28.85;;;26.10;;
76119;SDS011;64852;48.092;-1.640;2023-10-31T12:57:47;29.52;;;27.05;;
76119;SDS011;64852;48.092;-1.640;2023-10-31T13:05:11;29.75;;;27.15;;
76119;SDS011;64852;48.092;-1.640;2023-10-31T13:07:38;28.85;;;26.35;;
76119;SDS011;64852;48.092;-1.640;2023-10-31T13:10:06;30.35;;;27.85;;
76119;SDS011;64852;48.092;-1.640;2023-10-31T13:12:34;27.13;;;24.73;;
76119;SDS011;64852;48.092;-1.640;2023-10-31T13:15:00;29.98;;;27.48;;
76119;SDS011;64852;48.092;-1.640;2023-10-31T13:17:26;28.63;;;26.23;;
76119;SDS011;64852;48.092;-1.640;2023-10-31T13:19:53;28.77;;;26.38;;
76119;SDS011;64852;48.092;-1.640;2023-10-31T13:22:18;30.15;;;27.40;;
76119;SDS011;64852;48.092;-1.640;2023-10-31T13:24:44;34.42;;;31.45;;
76119;SDS011;64852;48.092;-1.640;2023-10-31T13:27:10;37.05;;;33.42;;
76119;SDS011;64852;48.092;-1.640;2023-10-31T13:29:41;36.15;;;32.83;;
76119;SDS011;64852;48.092;-1.640;2023-10-31T13:32:06;35.60;;;32.60;;
76119;SDS011;64852;48.092;-1.640;2023-10-31T13:34:33;34.50;;;31.70;;
76119;SDS011;64852;48.092;-1.640;2023-10-31T13:36:59;35.83;;;32.97;;
76119;SDS011;64852;48.092;-1.640;2023-10-31T13:39:25;31.45;;;28.77;;
76119;SDS011;64852;48.092;-1.640;2023-10-31T13:41:50;32.20;;;29.53;;
76119;SDS011;64852;48.092;-1.640;2023-10-31T13:44:16;31.27;;;28.37;;
76119;SDS011;64852;48.092;-1.640;2023-10-31T13:46:41;31.07;;;28.47;;
76119;SDS011;64852;48.092;-1.640;2023-10-31T13:49:08;28.48;;;26.08;;
76119;SDS011;64852;48.092;-1.640;2023-10-31T13:51:34;30.45;;;27.95;;
76119;SDS011;64852;48.092;-1.640;2023-10-31T13:53:59;31.20;;;28.70;;
76119;SDS011;64852;48.092;-1.640;2023-10-31T13:56:25;29.83;;;27.33;;
76119;SDS011;64852;48.092;-1.640;2023-10-31T13:58:51;28.83;;;26.33;;
76119;SDS011;64852;48.092;-1.640;2023-10-31T14:01:16;40.87;;;37.83;;
76119;SDS011;64852;48.092;-1.640;2023-10-31T14:03:42;27.27;;;24.87;;
76119;SDS011;64852;48.092;-1.640;2023-10-31T14:06:08;27.50;;;25.10;;
76119;SDS011;64852;48.092;-1.640;2023-10-31T14:08:35;29.63;;;26.85;;
76119;SDS011;64852;48.092;-1.640;2023-10-31T14:11:01;28.03;;;25.63;;
76119;SDS011;64852;48.092;-1.640;2023-10-31T14:13:27;27.42;;;25.05;;
76119;SDS011;64852;48.092;-1.640;2023-10-31T14:15:54;27.73;;;25.33;;
76119;SDS011;64852;48.092;-1.640;2023-10-31T14:18:20;26.90;;;24.60;;
76119;SDS011;64852;48.092;-1.640;2023-10-31T14:20:46;26.73;;;24.43;;
76119;SDS011;64852;48.092;-1.640;2023-10-31T14:23:11;28.10;;;25.60;;
76119;SDS011;64852;48.092;-1.640;2023-10-31T14:25:37;37.57;;;25.40;;
76119;SDS011;64852;48.092;-1.640;2023-10-31T14:28:03;26.38;;;24.17;;
76119;SDS011;64852;48.092;-1.640;2023-10-31T14:30:29;28.00;;;25.60;;
76119;SDS011;64852;48.092;-1.640;2023-10-31T14:32:55;28.57;;;26.17;;
76119;SDS011;64852;48.092;-1.640;2023-10-31T14:35:20;28.27;;;25.87;;